createdAt,value
2022-12-01T00:01:59.955Z,45.28
2022-12-01T00:04:26.609Z,42.20
2022-12-01T00:06:53.079Z,42.10
2022-12-01T00:09:39.108Z,41.13
2022-12-01T00:12:05.668Z,39.28
2022-12-01T00:14:32.092Z,41.65
2022-12-01T00:16:58.561Z,37.63
2022-12-01T00:19:28.243Z,38.85
2022-12-01T00:21:54.672Z,40.38
2022-12-01T00:24:23.433Z,40.15
2022-12-01T00:26:50.360Z,34.42
2022-12-01T00:29:16.794Z,36.78
2022-12-01T00:31:43.301Z,38.10
2022-12-01T00:34:22.370Z,37.75
2022-12-01T00:36:48.904Z,42.15
2022-12-01T00:39:26.536Z,40.25
2022-12-01T00:41:52.948Z,38.63
2022-12-01T00:44:19.413Z,40.80
2022-12-01T00:46:45.919Z,39.80
2022-12-01T00:49:13.915Z,39.03
2022-12-01T00:51:40.531Z,39.85
2022-12-01T00:54:07.119Z,37.58
2022-12-01T00:56:33.547Z,41.95
2022-12-01T00:58:59.980Z,39.33
2022-12-01T01:01:33.316Z,41.95
2022-12-01T01:03:59.795Z,38.30
2022-12-01T01:06:26.216Z,36.63
2022-12-01T01:08:52.625Z,40.33
2022-12-01T01:11:19.133Z,38.70
2022-12-01T01:13:49.801Z,36.40
2022-12-01T01:16:21.848Z,39.60
2022-12-01T01:18:48.879Z,40.33
2022-12-01T01:21:18.330Z,35.13
2022-12-01T01:23:44.878Z,35.22
2022-12-01T01:26:17.031Z,40.13
2022-12-01T01:28:43.520Z,39.47
2022-12-01T01:31:12.358Z,36.03
2022-12-01T01:33:51.584Z,38.75
2022-12-01T01:36:19.419Z,38.42
2022-12-01T01:39:27.796Z,38.33
2022-12-01T01:41:54.218Z,41.00
2022-12-01T01:44:50.553Z,43.63
2022-12-01T01:47:51.479Z,39.37
2022-12-01T01:50:22.506Z,41.03
2022-12-01T01:52:55.741Z,37.72
2022-12-01T01:55:22.446Z,38.78
2022-12-01T01:57:49.120Z,40.53
2022-12-01T02:00:18.920Z,34.95
2022-12-01T02:02:47.542Z,36.42
2022-12-01T02:05:33.422Z,38.53
2022-12-01T02:08:01.638Z,40.47
2022-12-01T02:10:59.076Z,40.92
2022-12-01T02:13:39.463Z,39.80
2022-12-01T02:16:49.981Z,40.28
2022-12-01T02:19:33.457Z,38.45
2022-12-01T02:22:13.064Z,37.88
2022-12-01T02:24:56.501Z,41.55
2022-12-01T02:28:12.280Z,37.75
2022-12-01T02:30:47.755Z,32.28
2022-12-01T02:33:40.025Z,43.70
2022-12-01T02:36:42.131Z,38.08
2022-12-01T02:39:42.360Z,40.30
2022-12-01T02:42:38.181Z,37.03
2022-12-01T02:45:10.384Z,39.42
2022-12-01T02:47:40.265Z,39.63
2022-12-01T02:50:09.806Z,40.00
2022-12-01T02:52:38.454Z,39.20
2022-12-01T02:55:05.245Z,41.00
2022-12-01T02:57:31.795Z,40.03
2022-12-01T02:59:59.931Z,37.58
2022-12-01T03:02:42.540Z,42.30
2022-12-01T03:05:28.606Z,40.10
2022-12-01T03:08:06.510Z,41.00
2022-12-01T03:10:59.739Z,40.38
2022-12-01T03:14:09.865Z,44.50
2022-12-01T03:16:57.039Z,45.45
2022-12-01T03:19:38.383Z,40.75
2022-12-01T03:22:15.219Z,41.47
2022-12-01T03:24:55.156Z,45.08
2022-12-01T03:27:26.973Z,41.53
2022-12-01T03:29:57.105Z,49.55
2022-12-01T03:32:32.501Z,49.22
2022-12-01T03:35:04.818Z,44.43
2022-12-01T03:37:46.867Z,46.67
2022-12-01T03:40:27.149Z,48.15
2022-12-01T03:42:59.133Z,50.38
2022-12-01T03:45:32.251Z,47.35
2022-12-01T03:47:58.901Z,46.30
2022-12-01T03:50:35.425Z,44.65
2022-12-01T03:53:10.744Z,48.65
2022-12-01T03:55:41.828Z,48.63
2022-12-01T03:58:15.987Z,51.67
2022-12-01T04:00:43.704Z,52.03
2022-12-01T04:03:18.249Z,52.50
2022-12-01T04:05:44.825Z,52.90
2022-12-01T04:08:11.316Z,53.63
2022-12-01T04:10:41.827Z,52.95
2022-12-01T04:13:15.969Z,50.78
2022-12-01T04:15:43.303Z,52.47
2022-12-01T04:18:09.765Z,54.00
2022-12-01T04:20:36.178Z,50.75
2022-12-01T04:23:02.613Z,55.92
2022-12-01T04:25:29.068Z,64.43
2022-12-01T04:27:55.448Z,60.22
2022-12-01T04:30:21.869Z,65.20
2022-12-01T04:32:48.288Z,60.90
2022-12-01T04:35:14.759Z,64.35
2022-12-01T04:37:41.195Z,61.20
2022-12-01T04:40:08.968Z,68.88
2022-12-01T04:42:35.436Z,60.00
2022-12-01T04:45:01.955Z,66.38
2022-12-01T04:47:28.482Z,60.85
2022-12-01T04:49:54.963Z,65.60
2022-12-01T04:52:21.403Z,64.10
2022-12-01T04:54:47.805Z,62.08
2022-12-01T04:57:14.303Z,65.20
2022-12-01T04:59:40.720Z,73.10
2022-12-01T05:02:07.603Z,72.10
2022-12-01T05:04:38.667Z,65.60
2022-12-01T05:07:05.379Z,67.30
2022-12-01T05:09:34.950Z,70.72
2022-12-01T05:12:01.415Z,70.80
2022-12-01T05:14:28.998Z,71.18
2022-12-01T05:17:03.625Z,71.90
2022-12-01T05:19:59.010Z,71.10
2022-12-01T05:23:04.242Z,68.70
2022-12-01T05:25:37.495Z,72.97
2022-12-01T05:28:09.945Z,77.38
2022-12-01T05:30:55.751Z,65.60
2022-12-01T05:33:24.541Z,77.73
2022-12-01T05:35:57.171Z,72.53
2022-12-01T05:38:24.828Z,72.18
2022-12-01T05:41:00.624Z,73.63
2022-12-01T05:43:44.618Z,70.00
2022-12-01T05:46:14.363Z,68.85
2022-12-01T05:48:42.364Z,74.28
2022-12-01T05:51:10.806Z,71.00
2022-12-01T05:53:49.102Z,70.35
2022-12-01T05:56:17.656Z,74.15
2022-12-01T05:58:44.231Z,71.00
2022-12-01T06:01:10.802Z,74.00
2022-12-01T06:03:38.342Z,65.88
2022-12-01T06:06:04.903Z,76.47
2022-12-01T06:08:31.312Z,61.50
2022-12-01T06:10:57.959Z,75.55
2022-12-01T06:13:24.406Z,70.95
2022-12-01T06:15:58.893Z,68.18
2022-12-01T06:18:35.298Z,64.78
2022-12-01T06:21:02.356Z,58.33
2022-12-01T06:23:30.566Z,67.18
2022-12-01T06:25:57.558Z,65.38
2022-12-01T06:28:32.140Z,64.70
2022-12-01T06:31:03.206Z,65.63
2022-12-01T06:33:31.543Z,64.28
2022-12-01T06:36:06.165Z,66.30
2022-12-01T06:38:35.304Z,69.13
2022-12-01T06:41:02.541Z,72.38
2022-12-01T06:43:29.685Z,67.90
2022-12-01T06:46:01.177Z,63.80
2022-12-01T06:48:29.477Z,67.63
2022-12-01T06:51:00.246Z,61.22
2022-12-01T06:53:28.406Z,61.03
2022-12-01T06:55:59.374Z,69.07
2022-12-01T06:58:34.633Z,66.25
2022-12-01T07:01:08.457Z,69.75
2022-12-01T07:03:35.268Z,68.68
2022-12-01T07:06:17.973Z,65.15
2022-12-01T07:08:44.739Z,66.88
2022-12-01T07:11:13.966Z,63.22
2022-12-01T07:13:41.808Z,76.65
2022-12-01T07:16:09.102Z,67.85
2022-12-01T07:18:37.092Z,66.25
2022-12-01T07:21:07.069Z,66.65
2022-12-01T07:23:33.913Z,62.05
2022-12-01T07:26:02.542Z,65.90
2022-12-01T07:28:29.480Z,66.05
2022-12-01T07:31:12.888Z,68.97
2022-12-01T07:33:39.738Z,67.35
2022-12-01T07:36:07.029Z,68.50
2022-12-01T07:38:34.094Z,58.00
2022-12-01T07:41:09.605Z,63.28
2022-12-01T07:43:36.770Z,69.70
2022-12-01T07:46:15.739Z,73.53
2022-12-01T07:48:45.788Z,66.88
2022-12-01T07:51:17.665Z,68.20
2022-12-01T07:53:49.290Z,64.75
2022-12-01T07:56:17.417Z,57.17
2022-12-01T07:58:44.336Z,61.10
2022-12-01T08:01:13.888Z,56.67
2022-12-01T08:03:51.644Z,55.88
2022-12-01T08:06:18.932Z,52.65
2022-12-01T08:08:45.460Z,53.30
2022-12-01T08:11:17.602Z,58.78
2022-12-01T08:13:44.793Z,51.47
2022-12-01T08:16:14.040Z,51.22
2022-12-01T08:18:42.341Z,50.72
2022-12-01T08:21:14.810Z,54.75
2022-12-01T08:23:42.207Z,51.45
2022-12-01T08:26:12.781Z,52.70
2022-12-01T08:28:42.493Z,51.90
2022-12-01T08:31:39.313Z,45.92
2022-12-01T08:34:06.725Z,50.63
2022-12-01T08:36:34.275Z,52.38
2022-12-01T08:39:00.837Z,46.78
2022-12-01T08:41:44.660Z,46.75
2022-12-01T08:44:11.325Z,45.97
2022-12-01T08:46:38.129Z,48.90
2022-12-01T08:49:06.306Z,49.40
2022-12-01T08:51:33.074Z,46.53
2022-12-01T08:54:00.108Z,43.85
2022-12-01T08:56:35.725Z,43.85
2022-12-01T08:59:02.763Z,46.88
2022-12-01T09:01:29.546Z,43.13
2022-12-01T09:04:08.229Z,42.22
2022-12-01T09:06:42.312Z,39.85
2022-12-01T09:09:11.353Z,39.53
2022-12-01T09:11:37.910Z,41.67
2022-12-01T09:14:05.413Z,40.92
2022-12-01T09:16:33.475Z,41.30
2022-12-01T09:19:00.079Z,44.67
2022-12-01T09:21:32.797Z,41.33
2022-12-01T09:24:00.860Z,39.50
2022-12-01T09:26:28.212Z,45.03
2022-12-01T09:28:57.398Z,43.45
2022-12-01T09:31:24.507Z,35.83
2022-12-01T09:34:08.726Z,34.00
2022-12-01T09:36:37.581Z,42.05
2022-12-01T09:39:06.231Z,47.55
2022-12-01T09:41:39.461Z,41.33
2022-12-01T09:44:17.052Z,42.25
2022-12-01T09:47:03.108Z,41.83
2022-12-01T09:49:42.090Z,33.85
2022-12-01T09:52:12.704Z,33.58
2022-12-01T09:54:39.629Z,38.47
2022-12-01T09:57:06.145Z,44.95
2022-12-01T09:59:39.592Z,44.65
2022-12-01T10:02:23.076Z,41.40
2022-12-01T10:04:52.502Z,41.65
2022-12-01T10:07:30.800Z,39.70
2022-12-01T10:10:18.002Z,37.33
2022-12-01T10:12:52.322Z,40.65
2022-12-01T10:15:45.095Z,37.05
2022-12-01T10:18:33.989Z,37.38
2022-12-01T10:21:03.880Z,37.10
2022-12-01T10:23:55.317Z,39.83
2022-12-01T10:26:31.930Z,42.67
2022-12-01T10:29:24.438Z,36.13
2022-12-01T10:31:58.220Z,39.15
2022-12-01T10:34:32.819Z,38.05
2022-12-01T10:36:59.376Z,37.40
2022-12-01T10:40:00.045Z,33.40
2022-12-01T10:42:43.363Z,35.15
2022-12-01T10:45:33.977Z,36.00
2022-12-01T10:48:08.308Z,39.00
2022-12-01T10:50:35.924Z,43.35
2022-12-01T10:53:03.544Z,37.85
2022-12-01T10:55:40.836Z,33.00
2022-12-01T10:58:15.494Z,37.03
2022-12-01T11:01:02.397Z,39.03
2022-12-01T11:03:36.802Z,38.00
2022-12-01T11:06:05.807Z,39.67
2022-12-01T11:08:44.424Z,38.47
2022-12-01T11:11:40.584Z,40.53
2022-12-01T11:14:18.716Z,36.15
2022-12-01T11:16:48.507Z,35.40
2022-12-01T11:19:33.785Z,51.78
2022-12-01T11:22:03.215Z,42.33
2022-12-01T11:24:42.257Z,41.38
2022-12-01T11:27:18.860Z,39.08
2022-12-01T11:29:49.787Z,35.53
2022-12-01T11:32:23.850Z,39.65
2022-12-01T11:34:57.398Z,43.40
2022-12-01T11:37:28.756Z,45.40
2022-12-01T11:40:22.581Z,46.53
2022-12-01T11:42:51.657Z,51.60
2022-12-01T11:45:21.099Z,48.95
2022-12-01T11:48:29.301Z,48.25
2022-12-01T11:51:16.169Z,48.38
2022-12-01T11:53:43.732Z,46.65
2022-12-01T11:56:19.500Z,52.58
2022-12-01T11:59:25.750Z,49.15
2022-12-01T12:02:04.474Z,53.25
2022-12-01T12:04:54.103Z,48.53
2022-12-01T12:07:45.108Z,44.63
2022-12-01T12:10:26.986Z,49.92
2022-12-01T12:13:25.227Z,50.92
2022-12-01T12:16:05.741Z,44.70
2022-12-01T12:19:16.917Z,47.35
2022-12-01T12:22:15.574Z,51.55
2022-12-01T12:25:03.244Z,53.25
2022-12-01T12:27:45.850Z,56.30
2022-12-01T12:30:42.689Z,52.80
2022-12-01T12:33:52.250Z,45.30
2022-12-01T12:36:39.705Z,56.72
2022-12-01T12:39:36.897Z,65.65
2022-12-01T12:42:18.097Z,91.57
2022-12-01T12:44:52.336Z,156.75
2022-12-01T12:47:30.879Z,56.22
2022-12-01T12:50:17.297Z,53.42
2022-12-01T12:52:51.486Z,56.20
2022-12-01T12:55:21.195Z,51.03
2022-12-01T12:57:58.033Z,57.33
2022-12-01T13:00:42.297Z,54.17
2022-12-01T13:03:19.140Z,55.40
2022-12-01T13:05:57.573Z,45.75
2022-12-01T13:08:45.433Z,46.92
2022-12-01T13:11:33.293Z,48.00
2022-12-01T13:14:13.194Z,46.08
2022-12-01T13:16:48.730Z,52.72
2022-12-01T13:19:28.647Z,49.08
2022-12-01T13:21:57.365Z,53.78
2022-12-01T13:24:29.342Z,55.38
2022-12-01T13:27:05.554Z,53.28
2022-12-01T13:32:28.269Z,54.25
2022-12-01T13:34:56.521Z,47.83
2022-12-01T13:37:31.055Z,54.35
2022-12-01T13:40:23.457Z,44.80
2022-12-01T13:43:14.879Z,49.63
2022-12-01T13:46:20.558Z,51.83
2022-12-01T13:48:56.809Z,46.10
2022-12-01T13:51:47.807Z,49.72
2022-12-01T13:54:52.904Z,45.80
2022-12-01T13:57:27.494Z,49.10
2022-12-01T14:00:28.011Z,45.72
2022-12-01T14:03:35.574Z,48.22
2022-12-01T14:06:24.887Z,44.92
2022-12-01T14:09:00.384Z,44.03
2022-12-01T14:11:33.857Z,46.58
2022-12-01T14:14:12.993Z,45.58
2022-12-01T14:16:51.578Z,47.58
2022-12-01T14:19:46.186Z,43.05
2022-12-01T14:22:38.385Z,45.22
2022-12-01T14:25:26.994Z,45.97
2022-12-01T14:28:03.114Z,39.55
2022-12-01T14:30:49.828Z,37.88
2022-12-01T14:36:07.879Z,41.53
2022-12-01T14:38:42.677Z,37.40
2022-12-01T14:41:21.106Z,51.55
2022-12-01T14:44:05.640Z,46.38
2022-12-01T14:47:00.743Z,54.10
2022-12-01T14:49:35.107Z,43.03
2022-12-01T14:52:09.444Z,41.47
2022-12-01T14:54:45.266Z,43.47
2022-12-01T14:57:20.540Z,43.35
2022-12-01T15:00:07.586Z,41.33
2022-12-01T15:02:53.718Z,43.85
2022-12-01T15:05:22.366Z,44.20
2022-12-01T15:07:58.840Z,38.25
2022-12-01T15:10:36.998Z,42.42
2022-12-01T15:13:33.811Z,39.70
2022-12-01T15:16:05.739Z,47.78
2022-12-01T15:18:36.848Z,46.83
2022-12-01T15:21:26.456Z,43.45
2022-12-01T15:24:24.329Z,39.90
2022-12-01T15:26:55.185Z,40.58
2022-12-01T15:29:44.696Z,43.17
2022-12-01T15:32:24.970Z,46.10
2022-12-01T15:34:56.261Z,44.85
2022-12-01T15:37:42.540Z,40.55
2022-12-01T15:43:05.994Z,48.60
2022-12-01T15:45:48.371Z,45.17
2022-12-01T15:48:34.730Z,42.42
2022-12-01T15:51:05.625Z,46.80
2022-12-01T15:53:36.935Z,45.92
2022-12-01T15:56:09.249Z,45.65
2022-12-01T15:59:27.694Z,41.35
2022-12-01T16:01:56.907Z,41.00
2022-12-01T16:04:35.377Z,43.63
2022-12-01T16:07:12.184Z,47.85
2022-12-01T16:10:04.911Z,46.92
2022-12-01T16:12:37.180Z,46.47
2022-12-01T16:15:22.777Z,42.80
2022-12-01T16:17:52.751Z,44.33
2022-12-01T16:20:32.187Z,40.58
2022-12-01T16:23:22.420Z,48.60
2022-12-01T16:26:08.915Z,36.97
2022-12-01T16:28:43.696Z,43.08
2022-12-01T16:31:19.540Z,46.67
2022-12-01T16:33:48.172Z,45.13
2022-12-01T16:36:14.912Z,35.60
2022-12-01T16:38:43.431Z,43.13
2022-12-01T16:41:36.359Z,37.97
2022-12-01T16:44:29.066Z,40.88
2022-12-01T16:46:59.736Z,37.20
2022-12-01T16:49:30.380Z,37.22
2022-12-01T16:51:57.539Z,39.90
2022-12-01T16:54:36.979Z,36.58
2022-12-01T16:57:03.690Z,39.90
2022-12-01T16:59:32.565Z,43.75
2022-12-01T17:02:03.163Z,40.17
2022-12-01T17:04:29.755Z,40.55
2022-12-01T17:07:01.470Z,45.22
2022-12-01T17:09:30.954Z,45.88
2022-12-01T17:12:09.955Z,40.20
2022-12-01T17:14:42.520Z,43.17
2022-12-01T17:17:10.065Z,41.65
2022-12-01T17:19:39.593Z,42.75
2022-12-01T17:22:08.472Z,43.70
2022-12-01T17:24:36.017Z,45.67
2022-12-01T17:27:04.494Z,38.63
2022-12-01T17:29:31.026Z,37.60
2022-12-01T17:31:59.460Z,43.28
2022-12-01T17:34:25.901Z,43.65
2022-12-01T17:37:04.585Z,42.00
2022-12-01T17:39:32.097Z,41.58
2022-12-01T17:41:58.479Z,44.17
2022-12-01T17:44:28.629Z,41.42
2022-12-01T17:47:02.972Z,42.35
2022-12-01T17:49:32.836Z,44.17
2022-12-01T17:52:10.542Z,45.42
2022-12-01T17:54:40.989Z,49.25
2022-12-01T17:57:08.516Z,43.85
2022-12-01T17:59:43.941Z,46.20
2022-12-01T18:02:23.815Z,46.47
2022-12-01T18:04:50.633Z,46.50
2022-12-01T18:07:20.521Z,43.38
2022-12-01T18:09:47.053Z,43.60
2022-12-01T18:12:16.671Z,46.15
2022-12-01T18:14:47.399Z,48.97
2022-12-01T18:17:14.049Z,46.67
2022-12-01T18:19:41.512Z,46.50
2022-12-01T18:22:08.011Z,42.45
2022-12-01T18:24:36.576Z,50.08
2022-12-01T18:27:07.194Z,47.30
2022-12-01T18:29:35.712Z,42.67
2022-12-01T18:32:03.379Z,44.95
2022-12-01T18:34:33.964Z,48.40
2022-12-01T18:37:05.779Z,41.92
2022-12-01T18:39:48.001Z,45.47
2022-12-01T18:42:16.454Z,43.45
2022-12-01T18:44:43.029Z,50.78
2022-12-01T18:47:14.617Z,54.15
2022-12-01T18:49:52.308Z,44.28
2022-12-01T18:52:23.889Z,43.10
2022-12-01T18:54:51.640Z,37.58
2022-12-01T18:57:18.996Z,37.65
2022-12-01T18:59:51.493Z,47.47
2022-12-01T19:02:21.037Z,43.08
2022-12-01T19:04:53.705Z,44.63
2022-12-01T19:07:29.952Z,43.67
2022-12-01T19:09:56.699Z,44.17
2022-12-01T19:12:23.201Z,37.40
2022-12-01T19:14:50.332Z,40.17
2022-12-01T19:17:37.691Z,42.78
2022-12-01T19:20:08.969Z,42.03
2022-12-01T19:22:35.385Z,38.53
2022-12-01T19:25:04.130Z,38.40
2022-12-01T19:27:34.701Z,34.47
2022-12-01T19:30:01.149Z,42.28
2022-12-01T19:32:32.041Z,37.97
2022-12-01T19:34:58.650Z,40.50
2022-12-01T19:37:34.149Z,43.80
2022-12-01T19:40:00.590Z,42.25
2022-12-01T19:42:30.988Z,40.25
2022-12-01T19:44:59.456Z,43.67
2022-12-01T19:47:34.654Z,48.60
2022-12-01T19:50:10.035Z,41.40
2022-12-01T19:52:46.694Z,46.67
2022-12-01T19:55:21.786Z,42.95
2022-12-01T19:57:53.337Z,40.80
2022-12-01T20:00:33.121Z,38.15
2022-12-01T20:03:18.074Z,40.75
2022-12-01T20:05:45.591Z,42.67
2022-12-01T20:08:19.228Z,42.28
2022-12-01T20:10:49.488Z,41.85
2022-12-01T20:13:15.902Z,41.25
2022-12-01T20:16:15.201Z,36.75
2022-12-01T20:18:47.698Z,39.92
2022-12-01T20:21:27.140Z,38.45
2022-12-01T20:23:58.073Z,40.47
2022-12-01T20:26:32.612Z,36.53
2022-12-01T20:29:07.155Z,41.70
2022-12-01T20:31:41.825Z,39.55
2022-12-01T20:34:12.893Z,35.42
2022-12-01T20:36:47.200Z,39.40
2022-12-01T20:39:20.844Z,41.35
2022-12-01T20:41:53.521Z,38.20
2022-12-01T20:44:36.722Z,37.03
2022-12-01T20:47:16.561Z,39.10
2022-12-01T20:49:47.295Z,36.53
2022-12-01T20:52:14.919Z,38.53
2022-12-01T20:54:42.455Z,35.97
2022-12-01T20:57:22.050Z,38.60
2022-12-01T20:59:51.631Z,39.15
2022-12-01T21:02:26.526Z,37.78
2022-12-01T21:04:59.003Z,40.42
2022-12-01T21:07:27.935Z,37.75
2022-12-01T21:10:00.745Z,39.47
2022-12-01T21:12:48.374Z,38.45
2022-12-01T21:15:29.282Z,38.28
2022-12-01T21:18:13.435Z,35.75
2022-12-01T21:20:44.042Z,36.10
2022-12-01T21:23:14.793Z,44.15
2022-12-01T21:25:42.169Z,40.17
2022-12-01T21:28:46.289Z,43.88
2022-12-01T21:31:14.434Z,43.33
2022-12-01T21:33:42.226Z,41.47
2022-12-01T21:36:22.874Z,38.50
2022-12-01T21:39:13.491Z,39.47
2022-12-01T21:41:40.176Z,36.70
2022-12-01T21:44:37.644Z,39.67
2022-12-01T21:47:17.865Z,36.55
2022-12-01T21:49:45.347Z,42.08
2022-12-01T21:52:21.565Z,38.08
2022-12-01T22:00:30.783Z,29.33
2022-12-01T22:03:16.163Z,38.15
2022-12-01T22:06:07.162Z,35.95
2022-12-01T22:08:37.093Z,36.05
2022-12-01T22:11:24.074Z,37.25
2022-12-01T22:14:21.418Z,36.85
2022-12-01T22:16:57.224Z,32.63
2022-12-01T22:19:26.379Z,34.00
2022-12-01T22:22:03.463Z,40.08
2022-12-01T22:24:53.820Z,35.88
2022-12-01T22:27:29.633Z,36.17
2022-12-01T22:29:59.034Z,40.10
2022-12-01T22:32:33.352Z,37.38
2022-12-01T22:35:14.445Z,32.97
2022-12-01T22:37:46.248Z,34.50
2022-12-01T22:40:52.470Z,37.70
2022-12-01T22:43:28.928Z,35.22
2022-12-01T22:46:10.043Z,37.72
2022-12-01T22:48:43.336Z,39.03
2022-12-01T22:51:12.801Z,40.28
2022-12-01T22:53:41.901Z,40.17
2022-12-01T22:56:46.493Z,38.97
2022-12-01T22:59:21.310Z,35.83
2022-12-01T23:01:49.275Z,40.80
2022-12-01T23:04:26.668Z,37.13
2022-12-01T23:07:07.631Z,32.67
2022-12-01T23:09:43.106Z,39.13
2022-12-01T23:12:12.639Z,41.80
2022-12-01T23:14:44.776Z,44.33
2022-12-01T23:17:18.404Z,40.15
2022-12-01T23:19:49.050Z,33.45
2022-12-01T23:22:16.099Z,36.65
2022-12-01T23:24:49.988Z,37.80
2022-12-01T23:27:18.015Z,36.58
2022-12-01T23:29:44.538Z,32.70
2022-12-01T23:32:12.463Z,35.85
2022-12-01T23:34:39.422Z,35.45
2022-12-01T23:37:39.015Z,39.22
2022-12-01T23:40:18.989Z,30.73
2022-12-01T23:42:48.922Z,35.05
2022-12-01T23:45:25.922Z,33.72
2022-12-01T23:47:55.298Z,39.30
2022-12-01T23:50:26.606Z,35.42
2022-12-01T23:52:53.863Z,35.13
2022-12-01T23:55:28.445Z,36.08
2022-12-01T23:57:58.937Z,36.20
